createdAt,value
2022-10-28T00:00:23.060Z,19.02
2022-10-28T00:02:53.275Z,20.77
2022-10-28T00:05:27.209Z,18.77
2022-10-28T00:07:56.458Z,17.48
2022-10-28T00:10:29.971Z,22.95
2022-10-28T00:12:58.823Z,18.90
2022-10-28T00:15:28.238Z,20.52
2022-10-28T00:17:57.812Z,22.00
2022-10-28T00:20:33.023Z,20.10
2022-10-28T00:23:04.893Z,18.08
2022-10-28T00:25:47.864Z,20.52
2022-10-28T00:28:22.462Z,20.02
2022-10-28T00:30:55.656Z,22.50
2022-10-28T00:33:26.753Z,23.75
2022-10-28T00:35:57.392Z,21.48
2022-10-28T00:38:28.421Z,23.15
2022-10-28T00:40:57.480Z,18.15
2022-10-28T00:43:48.202Z,19.88
2022-10-28T00:46:28.878Z,18.23
2022-10-28T00:49:01.758Z,18.85
2022-10-28T00:51:34.846Z,19.23
2022-10-28T00:54:08.356Z,16.00
2022-10-28T00:56:45.043Z,18.92
2022-10-28T00:59:23.965Z,19.25
2022-10-28T01:01:58.235Z,21.75
2022-10-28T01:04:28.103Z,19.17
2022-10-28T01:07:00.765Z,16.70
2022-10-28T01:09:29.597Z,19.70
2022-10-28T01:12:08.390Z,22.92
2022-10-28T01:14:57.939Z,18.48
2022-10-28T01:17:40.989Z,16.35
2022-10-28T01:21:08.217Z,14.70
2022-10-28T01:23:53.988Z,17.65
2022-10-28T01:27:08.560Z,21.30
2022-10-28T01:30:15.137Z,16.23
2022-10-28T01:32:57.844Z,21.83
2022-10-28T01:35:36.111Z,20.17
2022-10-28T01:38:30.218Z,15.40
2022-10-28T01:41:12.174Z,19.00
2022-10-28T01:43:49.620Z,23.48
2022-10-28T01:46:23.974Z,22.10
2022-10-28T01:49:01.163Z,20.83
2022-10-28T01:51:36.395Z,18.98
2022-10-28T01:54:12.289Z,22.00
2022-10-28T01:56:44.895Z,18.60
2022-10-28T01:59:18.462Z,19.90
2022-10-28T02:01:48.326Z,17.38
2022-10-28T02:04:22.241Z,21.63
2022-10-28T02:06:57.571Z,23.40
2022-10-28T02:10:00.273Z,18.23
2022-10-28T02:12:34.009Z,21.23
2022-10-28T02:15:27.748Z,21.63
2022-10-28T02:18:17.819Z,19.40
2022-10-28T02:20:54.926Z,17.50
2022-10-28T02:23:37.943Z,23.75
2022-10-28T02:26:19.275Z,18.95
2022-10-28T02:29:01.214Z,17.58
2022-10-28T02:31:36.326Z,19.63
2022-10-28T02:34:13.908Z,17.23
2022-10-28T02:36:50.162Z,18.70
2022-10-28T02:39:24.044Z,15.68
2022-10-28T02:41:56.820Z,18.88
2022-10-28T02:44:30.846Z,20.55
2022-10-28T02:47:13.052Z,16.60
2022-10-28T02:49:47.610Z,17.63
2022-10-28T02:52:22.573Z,16.75
2022-10-28T02:54:56.464Z,20.77
2022-10-28T02:57:28.726Z,18.25
2022-10-28T03:00:01.112Z,15.95
2022-10-28T03:02:36.754Z,20.55
2022-10-28T03:05:07.181Z,20.63
2022-10-28T03:07:49.333Z,18.65
2022-10-28T03:13:03.519Z,16.55
2022-10-28T03:15:32.682Z,20.70
2022-10-28T03:18:02.462Z,23.90
2022-10-28T03:20:31.845Z,20.45
2022-10-28T03:23:04.331Z,18.73
2022-10-28T03:25:33.352Z,19.25
2022-10-28T03:30:49.725Z,19.58
2022-10-28T03:33:18.782Z,20.60
2022-10-28T03:35:48.898Z,22.70
2022-10-28T03:38:32.721Z,21.98
2022-10-28T03:41:01.738Z,17.13
2022-10-28T03:43:31.175Z,17.10
2022-10-28T03:46:02.344Z,17.98
2022-10-28T03:48:32.440Z,21.35
2022-10-28T03:51:01.664Z,22.42
2022-10-28T03:53:37.606Z,18.67
2022-10-28T03:56:08.929Z,16.05
2022-10-28T03:58:41.039Z,20.15
2022-10-28T04:01:11.591Z,19.02
2022-10-28T04:03:41.710Z,20.02
2022-10-28T04:06:11.491Z,18.27
2022-10-28T04:08:42.573Z,15.68
2022-10-28T04:11:16.688Z,24.52
2022-10-28T04:13:49.401Z,18.80
2022-10-28T04:16:22.982Z,23.00
2022-10-28T04:18:52.949Z,18.90
2022-10-28T04:21:26.163Z,19.08
2022-10-28T04:23:59.940Z,17.85
2022-10-28T04:26:33.382Z,21.88
2022-10-28T04:29:02.394Z,20.58
2022-10-28T04:31:31.185Z,22.00
2022-10-28T04:34:02.038Z,17.60
2022-10-28T04:36:35.382Z,16.42
2022-10-28T04:39:05.927Z,17.58
2022-10-28T04:41:39.605Z,17.55
2022-10-28T04:44:08.582Z,18.80
2022-10-28T04:46:42.449Z,15.82
2022-10-28T04:49:29.712Z,15.43
2022-10-28T04:51:58.954Z,16.23
2022-10-28T04:54:30.065Z,18.00
2022-10-28T04:57:00.737Z,13.82
2022-10-28T04:59:29.797Z,20.45
2022-10-28T05:02:03.211Z,16.15
2022-10-28T05:04:35.352Z,19.67
2022-10-28T05:07:06.393Z,18.48
2022-10-28T05:09:41.389Z,20.30
2022-10-28T05:12:11.369Z,18.17
2022-10-28T05:14:43.824Z,20.25
2022-10-28T05:17:13.964Z,16.45
2022-10-28T05:19:58.879Z,16.58
2022-10-28T05:22:30.456Z,16.70
2022-10-28T05:25:01.296Z,13.55
2022-10-28T05:27:30.127Z,20.05
2022-10-28T05:30:06.626Z,19.88
2022-10-28T05:32:35.737Z,22.17
2022-10-28T05:35:04.660Z,18.40
2022-10-28T05:37:37.972Z,20.42
2022-10-28T05:40:17.132Z,15.85
2022-10-28T05:42:46.648Z,21.08
2022-10-28T05:45:20.253Z,17.50
2022-10-28T05:47:55.014Z,17.83
2022-10-28T05:50:28.850Z,16.48
2022-10-28T05:53:03.431Z,13.93
2022-10-28T05:55:35.377Z,17.13
2022-10-28T05:58:07.658Z,17.15
2022-10-28T06:00:41.468Z,17.27
2022-10-28T06:03:16.533Z,15.57
2022-10-28T06:05:52.433Z,16.13
2022-10-28T06:08:29.166Z,20.73
2022-10-28T06:11:02.911Z,18.63
2022-10-28T06:13:32.650Z,16.88
2022-10-28T06:16:03.632Z,19.63
2022-10-28T06:18:35.983Z,18.70
2022-10-28T06:21:09.148Z,16.35
2022-10-28T06:24:01.254Z,21.88
2022-10-28T06:26:34.149Z,21.13
2022-10-28T06:29:03.513Z,15.82
2022-10-28T06:31:35.070Z,15.75
2022-10-28T06:34:09.015Z,18.60
2022-10-28T06:36:43.200Z,20.55
2022-10-28T06:39:12.405Z,15.70
2022-10-28T06:41:46.981Z,15.85
2022-10-28T06:44:19.150Z,24.90
2022-10-28T06:46:55.535Z,15.00
2022-10-28T06:49:35.572Z,14.68
2022-10-28T06:52:16.548Z,20.48
2022-10-28T06:54:50.669Z,17.90
2022-10-28T06:57:24.469Z,18.60
2022-10-28T06:59:56.046Z,21.00
2022-10-28T07:02:26.190Z,15.13
2022-10-28T07:04:59.322Z,25.45
2022-10-28T07:07:28.503Z,18.83
2022-10-28T07:10:01.135Z,19.58
2022-10-28T07:12:32.713Z,17.98
2022-10-28T07:15:18.010Z,20.95
2022-10-28T07:17:56.096Z,18.77
2022-10-28T07:20:36.287Z,20.92
2022-10-28T07:23:11.019Z,19.08
2022-10-28T07:25:41.011Z,18.40
2022-10-28T07:28:20.461Z,19.73
2022-10-28T07:33:43.438Z,18.02
2022-10-28T07:36:24.609Z,18.17
2022-10-28T07:38:56.893Z,23.40
2022-10-28T07:41:28.404Z,18.13
2022-10-28T07:44:04.150Z,18.38
2022-10-28T07:46:36.452Z,18.45
2022-10-28T07:49:05.455Z,17.50
2022-10-28T07:51:38.441Z,19.05
2022-10-28T07:56:57.567Z,18.35
2022-10-28T07:59:37.667Z,17.13
2022-10-28T08:02:08.492Z,20.25
2022-10-28T08:04:40.664Z,18.52
2022-10-28T08:07:10.337Z,19.27
2022-10-28T08:12:34.900Z,19.35
2022-10-28T08:15:15.314Z,15.63
2022-10-28T08:18:07.272Z,17.52
2022-10-28T08:20:36.085Z,16.77
2022-10-28T08:25:53.780Z,19.08
2022-10-28T08:28:31.952Z,17.48
2022-10-28T08:31:10.465Z,18.70
2022-10-28T08:33:47.470Z,21.08
2022-10-28T08:36:22.829Z,17.38
2022-10-28T08:38:56.211Z,19.45
2022-10-28T08:41:46.043Z,21.38
2022-10-28T08:45:25.449Z,20.27
2022-10-28T08:51:04.896Z,19.75
2022-10-28T08:53:42.473Z,21.92
2022-10-28T08:56:33.787Z,20.42
2022-10-28T08:59:19.796Z,17.00
2022-10-28T09:02:05.844Z,21.85
2022-10-28T09:04:43.417Z,19.38
2022-10-28T09:07:25.236Z,19.48
2022-10-28T09:09:58.886Z,15.07
2022-10-28T09:12:48.245Z,20.73
2022-10-28T09:18:42.093Z,15.98
2022-10-28T10:57:59.724Z,14.60
2022-10-28T11:00:34.786Z,19.33
2022-10-28T11:03:09.911Z,18.17
2022-10-28T11:05:41.035Z,16.17
2022-10-28T11:08:37.469Z,17.85
2022-10-28T11:11:15.180Z,20.65
2022-10-28T11:51:44.149Z,21.10
2022-10-28T12:12:32.673Z,18.85
2022-10-28T12:15:15.276Z,17.98
2022-10-28T12:20:32.510Z,18.08
2022-10-28T12:29:18.267Z,16.05
2022-10-28T12:34:45.184Z,17.20
2022-10-28T12:37:19.605Z,20.50
2022-10-28T12:39:57.329Z,19.25
2022-10-28T12:42:31.238Z,15.18
2022-10-28T12:45:09.744Z,16.40
2022-10-28T12:47:46.612Z,14.27
2022-10-28T12:50:26.552Z,21.98
2022-10-28T12:53:18.326Z,21.27
2022-10-28T12:55:56.517Z,16.42
2022-10-28T12:58:36.419Z,18.48
2022-10-28T13:01:12.364Z,17.15
2022-10-28T13:03:46.950Z,19.55
2022-10-28T13:07:05.883Z,19.17
2022-10-28T13:09:52.362Z,15.18
2022-10-28T13:12:59.606Z,22.67
2022-10-28T13:16:02.091Z,21.25
2022-10-28T13:19:18.995Z,17.70
2022-10-28T13:22:46.465Z,15.57
2022-10-28T13:27:58.567Z,15.40
2022-10-28T13:30:29.443Z,16.33
2022-10-28T13:33:09.235Z,15.77
2022-10-28T13:35:39.857Z,18.23
2022-10-28T13:38:17.219Z,16.27
2022-10-28T13:41:32.167Z,14.77
2022-10-28T13:44:30.127Z,13.82
2022-10-28T13:47:25.802Z,15.75
2022-10-28T13:50:25.675Z,16.40
2022-10-28T13:53:56.587Z,17.23
2022-10-28T13:56:48.708Z,20.95
2022-10-28T13:59:30.779Z,14.15
2022-10-28T14:02:33.255Z,15.52
2022-10-28T14:05:03.025Z,14.80
2022-10-28T14:07:34.416Z,11.65
2022-10-28T14:10:24.589Z,11.90
2022-10-28T14:12:56.653Z,14.50
2022-10-28T14:15:31.309Z,15.77
2022-10-28T14:18:15.771Z,12.57
2022-10-28T14:21:07.711Z,18.95
2022-10-28T14:24:15.575Z,11.60
2022-10-28T14:27:31.239Z,11.98
2022-10-28T14:30:25.638Z,13.23
2022-10-28T14:33:27.856Z,19.15
2022-10-28T14:36:17.335Z,13.70
2022-10-28T14:39:21.769Z,17.73
2022-10-28T14:42:17.645Z,13.25
2022-10-28T14:45:19.009Z,15.48
2022-10-28T14:48:41.148Z,19.70
2022-10-28T14:51:15.189Z,13.90
2022-10-28T14:53:48.693Z,15.88
2022-10-28T14:56:29.815Z,14.95
2022-10-28T14:59:09.860Z,15.68
2022-10-28T15:02:03.990Z,16.10
2022-10-28T15:04:33.969Z,14.63
2022-10-28T15:07:04.855Z,21.73
2022-10-28T15:09:35.323Z,20.33
2022-10-28T15:12:11.087Z,14.40
2022-10-28T15:14:44.548Z,16.50
2022-10-28T15:17:18.828Z,13.90
2022-10-28T15:19:50.507Z,14.27
2022-10-28T15:22:28.276Z,18.17
2022-10-28T15:25:00.681Z,15.25
2022-10-28T15:27:33.654Z,18.23
2022-10-28T15:30:03.243Z,20.00
2022-10-28T15:32:36.529Z,17.85
2022-10-28T15:35:41.373Z,18.50
2022-10-28T15:38:40.518Z,16.75
2022-10-28T15:41:49.786Z,17.00
2022-10-28T15:44:31.641Z,13.85
2022-10-28T15:47:02.432Z,15.00
2022-10-28T15:50:07.300Z,19.20
2022-10-28T15:52:42.089Z,17.38
2022-10-28T15:58:40.115Z,20.30
2022-10-28T16:01:28.959Z,16.60
2022-10-28T16:04:01.163Z,16.33
2022-10-28T16:06:37.655Z,19.40
2022-10-28T16:09:20.394Z,21.35
2022-10-28T16:11:57.713Z,16.13
2022-10-28T16:14:36.798Z,18.73
2022-10-28T16:17:10.762Z,20.35
2022-10-28T16:19:43.740Z,17.88
2022-10-28T16:22:16.666Z,20.50
2022-10-28T16:24:45.853Z,19.88
2022-10-28T16:27:21.513Z,16.33
2022-10-28T16:29:51.635Z,22.67
2022-10-28T16:32:30.073Z,21.45
2022-10-28T16:37:45.349Z,21.00
2022-10-28T16:43:16.576Z,22.38
2022-10-28T16:45:45.270Z,22.50
2022-10-28T16:48:16.638Z,23.13
2022-10-28T16:50:50.969Z,18.38
2022-10-28T16:53:21.665Z,19.98
2022-10-28T16:55:50.769Z,22.42
2022-10-28T16:58:23.194Z,19.60
2022-10-28T17:00:58.246Z,24.52
2022-10-28T17:03:28.127Z,20.85
2022-10-28T17:05:57.374Z,20.92
2022-10-28T17:08:56.542Z,19.08
2022-10-28T17:11:18.562Z,22.45
2022-10-28T17:13:58.235Z,23.65
2022-10-28T17:16:28.290Z,18.63
2022-10-28T17:18:57.668Z,23.15
2022-10-28T17:21:36.600Z,26.65
2022-10-28T17:24:21.646Z,19.90
2022-10-28T17:26:54.761Z,25.05
2022-10-28T17:29:26.155Z,23.85
2022-10-28T17:31:55.425Z,21.00
2022-10-28T17:34:26.194Z,23.92
2022-10-28T17:36:57.234Z,25.00
2022-10-28T17:39:28.839Z,21.38
2022-10-28T17:41:58.081Z,22.58
2022-10-28T17:44:30.914Z,31.00
2022-10-28T17:47:02.728Z,16.67
2022-10-28T17:49:37.337Z,27.45
2022-10-28T17:52:07.239Z,20.33
2022-10-28T17:54:42.119Z,24.10
2022-10-28T17:57:20.510Z,18.98
2022-10-28T17:59:52.146Z,25.88
2022-10-28T18:02:24.247Z,23.40
2022-10-28T18:05:09.353Z,20.38
2022-10-28T18:07:46.003Z,27.23
2022-10-28T18:10:20.426Z,21.38
2022-10-28T18:15:53.432Z,19.90
2022-10-28T18:18:31.989Z,20.92
2022-10-28T18:21:07.160Z,19.02
2022-10-28T18:23:36.534Z,23.20
2022-10-28T18:28:59.186Z,17.80
2022-10-28T18:31:49.567Z,18.67
2022-10-28T18:34:18.554Z,17.38
2022-10-28T18:36:50.053Z,25.33
2022-10-28T19:04:09.279Z,22.63
2022-10-28T19:06:45.176Z,22.95
2022-10-28T19:09:30.157Z,19.55
2022-10-28T19:55:30.613Z,26.95
2022-10-28T20:13:19.632Z,31.10
2022-10-28T20:15:48.424Z,22.73
2022-10-28T20:18:17.198Z,24.83
2022-10-28T20:20:45.784Z,20.83
2022-10-28T20:23:14.459Z,26.08
2022-10-28T20:25:52.203Z,27.02
2022-10-28T20:28:24.455Z,23.13
2022-10-28T20:31:01.260Z,22.30
2022-10-28T20:33:33.556Z,25.52
2022-10-28T20:36:03.903Z,24.42
2022-10-28T20:38:32.889Z,24.10
2022-10-28T20:41:03.294Z,24.75
2022-10-28T20:43:47.718Z,20.73
2022-10-28T20:46:20.217Z,22.40
2022-10-28T20:48:51.014Z,22.40
2022-10-28T20:51:19.853Z,24.58
2022-10-28T20:53:53.311Z,24.13
2022-10-28T20:56:25.281Z,23.50
2022-10-28T20:58:57.798Z,21.98
2022-10-28T21:01:38.569Z,29.38
2022-10-28T21:04:09.499Z,23.00
2022-10-28T21:06:43.880Z,24.05
2022-10-28T21:09:15.823Z,25.05
2022-10-28T21:11:47.017Z,19.13
2022-10-28T21:14:20.695Z,22.17
2022-10-28T21:16:53.149Z,25.15
2022-10-28T21:19:26.272Z,22.90
2022-10-28T21:21:55.717Z,23.65
2022-10-28T21:24:25.409Z,26.05
2022-10-28T21:26:55.305Z,25.73
2022-10-28T21:29:26.879Z,25.08
2022-10-28T21:31:55.829Z,19.38
2022-10-28T21:34:25.398Z,32.53
2022-10-28T21:36:54.650Z,20.58
2022-10-28T21:39:25.538Z,26.77
2022-10-28T21:41:55.534Z,31.52
2022-10-28T21:44:27.111Z,27.15
2022-10-28T21:46:58.547Z,18.88
2022-10-28T21:49:28.287Z,20.05
2022-10-28T21:52:03.848Z,25.55
2022-10-28T21:54:36.839Z,25.67
2022-10-28T21:57:14.448Z,26.75
2022-10-28T21:59:50.165Z,25.88
2022-10-28T22:02:20.183Z,27.35
2022-10-28T22:04:50.248Z,22.30
2022-10-28T22:07:19.631Z,22.20
2022-10-28T22:09:50.055Z,19.08
2022-10-28T22:12:19.099Z,20.50
2022-10-28T22:14:52.888Z,23.38
2022-10-28T22:17:23.691Z,22.02
2022-10-28T22:19:57.733Z,20.05
2022-10-28T22:22:35.820Z,22.10
2022-10-28T22:25:09.348Z,24.17
2022-10-28T22:27:43.133Z,18.98
2022-10-28T22:30:43.456Z,23.17
2022-10-28T22:33:18.405Z,28.55
2022-10-28T22:36:04.511Z,24.90
2022-10-28T22:38:38.797Z,18.63
2022-10-28T22:41:14.438Z,24.38
2022-10-28T22:43:48.268Z,24.42
2022-10-28T22:46:24.803Z,30.35
2022-10-28T22:48:55.135Z,26.40
2022-10-28T22:51:31.297Z,28.13
2022-10-28T22:54:06.152Z,27.80
2022-10-28T22:56:35.844Z,33.40
2022-10-28T22:59:09.871Z,25.25
2022-10-28T23:01:47.448Z,28.17
2022-10-28T23:04:39.714Z,34.65
2022-10-28T23:07:17.198Z,24.70
2022-10-28T23:09:50.821Z,29.20
2022-10-28T23:12:39.309Z,26.55
2022-10-28T23:15:21.892Z,24.65
2022-10-28T23:18:11.393Z,29.98
2022-10-28T23:21:00.795Z,34.10
2022-10-28T23:23:37.870Z,32.33
2022-10-28T23:26:13.504Z,36.95
2022-10-28T23:28:43.322Z,31.38
2022-10-28T23:31:16.459Z,40.28
2022-10-28T23:33:53.757Z,37.08
2022-10-28T23:36:27.976Z,37.83
2022-10-28T23:39:03.357Z,30.40
2022-10-28T23:41:37.015Z,37.92
2022-10-28T23:44:08.268Z,30.98
2022-10-28T23:46:42.634Z,30.27
2022-10-28T23:49:18.693Z,33.67
2022-10-28T23:51:59.167Z,32.58
2022-10-28T23:54:36.572Z,31.10
2022-10-28T23:57:12.868Z,31.70
2022-10-28T23:59:49.261Z,36.60
